sensor_id;sensor_type;location;lat;lon;timestamp;P1;durP1;ratioP1;P2;durP2;ratioP2
6255;SDS011;3161;48.794;9.784;2023-04-08T00:00:16;5.97;;;4.97;;
6255;SDS011;3161;48.794;9.784;2023-04-08T00:02:43;7.03;;;4.93;;
6255;SDS011;3161;48.794;9.784;2023-04-08T00:05:12;7.20;;;5.90;;
6255;SDS011;3161;48.794;9.784;2023-04-08T00:07:39;7.10;;;5.13;;
6255;SDS011;3161;48.794;9.784;2023-04-08T00:10:27;5.70;;;5.10;;
6255;SDS011;3161;48.794;9.784;2023-04-08T00:12:51;5.63;;;4.90;;
6255;SDS011;3161;48.794;9.784;2023-04-08T00:15:18;6.80;;;5.20;;
6255;SDS011;3161;48.794;9.784;2023-04-08T00:17:46;10.47;;;5.30;;
6255;SDS011;3161;48.794;9.784;2023-04-08T00:20:13;6.87;;;5.03;;
6255;SDS011;3161;48.794;9.784;2023-04-08T00:22:41;7.67;;;5.23;;
6255;SDS011;3161;48.794;9.784;2023-04-08T00:25:08;6.53;;;5.33;;
6255;SDS011;3161;48.794;9.784;2023-04-08T00:27:36;6.80;;;5.17;;
6255;SDS011;3161;48.794;9.784;2023-04-08T00:30:04;7.53;;;5.27;;
6255;SDS011;3161;48.794;9.784;2023-04-08T00:32:32;7.00;;;4.97;;
6255;SDS011;3161;48.794;9.784;2023-04-08T00:34:59;6.30;;;5.50;;
6255;SDS011;3161;48.794;9.784;2023-04-08T00:37:27;8.33;;;5.43;;
6255;SDS011;3161;48.794;9.784;2023-04-08T00:39:56;7.50;;;5.70;;
6255;SDS011;3161;48.794;9.784;2023-04-08T00:42:23;7.97;;;5.90;;
6255;SDS011;3161;48.794;9.784;2023-04-08T00:44:51;6.60;;;5.47;;
6255;SDS011;3161;48.794;9.784;2023-04-08T00:47:18;7.33;;;5.53;;
6255;SDS011;3161;48.794;9.784;2023-04-08T00:49:46;7.17;;;5.87;;
6255;SDS011;3161;48.794;9.784;2023-04-08T00:52:13;7.23;;;5.73;;
6255;SDS011;3161;48.794;9.784;2023-04-08T00:54:41;6.67;;;5.40;;
6255;SDS011;3161;48.794;9.784;2023-04-08T00:57:09;6.80;;;5.37;;
6255;SDS011;3161;48.794;9.784;2023-04-08T00:59:36;7.77;;;5.53;;
6255;SDS011;3161;48.794;9.784;2023-04-08T01:02:11;7.37;;;5.37;;
6255;SDS011;3161;48.794;9.784;2023-04-08T01:07:28;6.23;;;5.63;;
6255;SDS011;3161;48.794;9.784;2023-04-08T01:09:58;6.23;;;5.60;;
6255;SDS011;3161;48.794;9.784;2023-04-08T01:12:31;7.93;;;5.53;;
6255;SDS011;3161;48.794;9.784;2023-04-08T01:15:04;7.57;;;6.10;;
6255;SDS011;3161;48.794;9.784;2023-04-08T01:17:33;6.80;;;6.10;;
6255;SDS011;3161;48.794;9.784;2023-04-08T01:20:03;8.10;;;6.37;;
6255;SDS011;3161;48.794;9.784;2023-04-08T01:22:45;8.83;;;6.23;;
6255;SDS011;3161;48.794;9.784;2023-04-08T01:25:32;6.80;;;5.77;;
6255;SDS011;3161;48.794;9.784;2023-04-08T01:28:05;7.23;;;6.53;;
6255;SDS011;3161;48.794;9.784;2023-04-08T01:30:37;7.37;;;6.63;;
6255;SDS011;3161;48.794;9.784;2023-04-08T01:33:06;6.50;;;5.80;;
6255;SDS011;3161;48.794;9.784;2023-04-08T01:35:35;6.63;;;5.93;;
6255;SDS011;3161;48.794;9.784;2023-04-08T01:38:03;7.07;;;6.37;;
6255;SDS011;3161;48.794;9.784;2023-04-08T01:40:33;10.77;;;6.83;;
6255;SDS011;3161;48.794;9.784;2023-04-08T01:43:03;7.10;;;6.03;;
6255;SDS011;3161;48.794;9.784;2023-04-08T01:45:32;7.83;;;6.77;;
6255;SDS011;3161;48.794;9.784;2023-04-08T01:48:00;7.87;;;6.77;;
6255;SDS011;3161;48.794;9.784;2023-04-08T01:50:28;7.27;;;6.40;;
6255;SDS011;3161;48.794;9.784;2023-04-08T01:52:58;7.27;;;6.60;;
6255;SDS011;3161;48.794;9.784;2023-04-08T01:55:27;7.67;;;6.87;;
6255;SDS011;3161;48.794;9.784;2023-04-08T01:57:55;7.67;;;6.83;;
6255;SDS011;3161;48.794;9.784;2023-04-08T02:00:27;8.10;;;7.30;;
6255;SDS011;3161;48.794;9.784;2023-04-08T02:02:55;8.80;;;7.40;;
6255;SDS011;3161;48.794;9.784;2023-04-08T02:05:24;9.93;;;8.50;;
6255;SDS011;3161;48.794;9.784;2023-04-08T02:07:52;14.63;;;10.73;;
6255;SDS011;3161;48.794;9.784;2023-04-08T02:10:20;12.10;;;10.37;;
6255;SDS011;3161;48.794;9.784;2023-04-08T02:12:47;13.73;;;11.60;;
6255;SDS011;3161;48.794;9.784;2023-04-08T02:15:15;12.37;;;10.13;;
6255;SDS011;3161;48.794;9.784;2023-04-08T02:17:44;12.70;;;9.00;;
6255;SDS011;3161;48.794;9.784;2023-04-08T02:20:23;11.73;;;9.27;;
6255;SDS011;3161;48.794;9.784;2023-04-08T02:23:06;10.80;;;9.17;;
6255;SDS011;3161;48.794;9.784;2023-04-08T02:25:42;10.37;;;8.50;;
6255;SDS011;3161;48.794;9.784;2023-04-08T02:28:11;9.30;;;8.40;;
6255;SDS011;3161;48.794;9.784;2023-04-08T02:30:41;9.70;;;8.70;;
6255;SDS011;3161;48.794;9.784;2023-04-08T02:33:11;9.23;;;8.23;;
6255;SDS011;3161;48.794;9.784;2023-04-08T02:35:39;10.30;;;9.10;;
6255;SDS011;3161;48.794;9.784;2023-04-08T02:38:08;11.40;;;9.53;;
6255;SDS011;3161;48.794;9.784;2023-04-08T02:40:35;10.57;;;8.97;;
6255;SDS011;3161;48.794;9.784;2023-04-08T02:43:03;11.37;;;9.20;;
6255;SDS011;3161;48.794;9.784;2023-04-08T02:45:31;12.83;;;9.90;;
6255;SDS011;3161;48.794;9.784;2023-04-08T02:48:01;12.37;;;10.37;;
6255;SDS011;3161;48.794;9.784;2023-04-08T02:50:29;13.40;;;10.37;;
6255;SDS011;3161;48.794;9.784;2023-04-08T02:52:57;14.83;;;11.67;;
6255;SDS011;3161;48.794;9.784;2023-04-08T02:55:24;14.13;;;10.37;;
6255;SDS011;3161;48.794;9.784;2023-04-08T02:57:52;12.53;;;9.90;;
6255;SDS011;3161;48.794;9.784;2023-04-08T03:00:20;10.50;;;9.27;;
6255;SDS011;3161;48.794;9.784;2023-04-08T03:02:47;11.33;;;9.40;;
6255;SDS011;3161;48.794;9.784;2023-04-08T03:05:15;10.80;;;9.33;;
6255;SDS011;3161;48.794;9.784;2023-04-08T03:07:42;11.70;;;9.87;;
6255;SDS011;3161;48.794;9.784;2023-04-08T03:10:10;12.27;;;9.73;;
6255;SDS011;3161;48.794;9.784;2023-04-08T03:12:37;11.20;;;9.47;;
6255;SDS011;3161;48.794;9.784;2023-04-08T03:15:05;10.43;;;9.03;;
6255;SDS011;3161;48.794;9.784;2023-04-08T03:17:33;14.47;;;9.20;;
6255;SDS011;3161;48.794;9.784;2023-04-08T03:20:01;10.23;;;8.80;;
6255;SDS011;3161;48.794;9.784;2023-04-08T03:22:30;10.43;;;8.97;;
6255;SDS011;3161;48.794;9.784;2023-04-08T03:24:58;10.87;;;8.63;;
6255;SDS011;3161;48.794;9.784;2023-04-08T03:27:26;9.63;;;8.27;;
6255;SDS011;3161;48.794;9.784;2023-04-08T03:29:54;10.87;;;9.13;;
6255;SDS011;3161;48.794;9.784;2023-04-08T03:32:22;10.07;;;9.03;;
6255;SDS011;3161;48.794;9.784;2023-04-08T03:34:50;13.17;;;9.03;;
6255;SDS011;3161;48.794;9.784;2023-04-08T03:37:18;11.03;;;8.60;;
6255;SDS011;3161;48.794;9.784;2023-04-08T03:39:45;10.63;;;8.77;;
6255;SDS011;3161;48.794;9.784;2023-04-08T03:42:13;11.27;;;8.97;;
6255;SDS011;3161;48.794;9.784;2023-04-08T03:44:40;12.67;;;9.93;;
6255;SDS011;3161;48.794;9.784;2023-04-08T03:47:08;11.23;;;9.73;;
6255;SDS011;3161;48.794;9.784;2023-04-08T03:49:35;11.03;;;8.93;;
6255;SDS011;3161;48.794;9.784;2023-04-08T03:52:03;13.60;;;9.10;;
6255;SDS011;3161;48.794;9.784;2023-04-08T03:54:31;10.50;;;8.53;;
6255;SDS011;3161;48.794;9.784;2023-04-08T03:56:59;10.60;;;8.20;;
6255;SDS011;3161;48.794;9.784;2023-04-08T03:59:26;9.87;;;7.67;;
6255;SDS011;3161;48.794;9.784;2023-04-08T04:01:54;8.43;;;7.60;;
6255;SDS011;3161;48.794;9.784;2023-04-08T04:04:22;13.13;;;7.53;;
6255;SDS011;3161;48.794;9.784;2023-04-08T04:06:50;10.30;;;8.13;;
6255;SDS011;3161;48.794;9.784;2023-04-08T04:09:17;10.57;;;8.40;;
6255;SDS011;3161;48.794;9.784;2023-04-08T04:11:45;9.33;;;8.17;;
6255;SDS011;3161;48.794;9.784;2023-04-08T04:14:12;11.07;;;8.07;;
6255;SDS011;3161;48.794;9.784;2023-04-08T04:16:40;11.37;;;8.47;;
6255;SDS011;3161;48.794;9.784;2023-04-08T04:19:08;9.43;;;8.43;;
6255;SDS011;3161;48.794;9.784;2023-04-08T04:21:35;8.90;;;8.00;;
6255;SDS011;3161;48.794;9.784;2023-04-08T04:24:03;9.57;;;8.33;;
6255;SDS011;3161;48.794;9.784;2023-04-08T04:26:31;9.87;;;8.03;;
6255;SDS011;3161;48.794;9.784;2023-04-08T04:28:59;9.33;;;8.10;;
6255;SDS011;3161;48.794;9.784;2023-04-08T04:31:26;9.77;;;8.30;;
6255;SDS011;3161;48.794;9.784;2023-04-08T04:33:54;10.53;;;8.77;;
6255;SDS011;3161;48.794;9.784;2023-04-08T04:36:21;9.90;;;8.47;;
6255;SDS011;3161;48.794;9.784;2023-04-08T04:38:49;12.83;;;10.10;;
6255;SDS011;3161;48.794;9.784;2023-04-08T04:41:17;12.17;;;9.90;;
6255;SDS011;3161;48.794;9.784;2023-04-08T04:43:44;13.73;;;10.47;;
6255;SDS011;3161;48.794;9.784;2023-04-08T04:46:12;13.27;;;10.13;;
6255;SDS011;3161;48.794;9.784;2023-04-08T04:48:40;15.27;;;10.80;;
6255;SDS011;3161;48.794;9.784;2023-04-08T04:51:07;23.20;;;15.00;;
6255;SDS011;3161;48.794;9.784;2023-04-08T04:53:35;16.10;;;12.77;;
6255;SDS011;3161;48.794;9.784;2023-04-08T04:56:03;13.73;;;10.67;;
6255;SDS011;3161;48.794;9.784;2023-04-08T04:58:30;12.20;;;9.93;;
6255;SDS011;3161;48.794;9.784;2023-04-08T05:00:58;12.43;;;9.97;;
6255;SDS011;3161;48.794;9.784;2023-04-08T05:03:26;16.17;;;11.40;;
6255;SDS011;3161;48.794;9.784;2023-04-08T05:05:53;16.93;;;11.50;;
6255;SDS011;3161;48.794;9.784;2023-04-08T05:08:21;15.90;;;10.33;;
6255;SDS011;3161;48.794;9.784;2023-04-08T05:10:48;20.50;;;11.83;;
6255;SDS011;3161;48.794;9.784;2023-04-08T05:13:16;13.17;;;10.77;;
6255;SDS011;3161;48.794;9.784;2023-04-08T05:15:44;13.83;;;10.17;;
6255;SDS011;3161;48.794;9.784;2023-04-08T05:18:12;11.70;;;9.47;;
6255;SDS011;3161;48.794;9.784;2023-04-08T05:20:39;12.73;;;9.80;;
6255;SDS011;3161;48.794;9.784;2023-04-08T05:23:07;11.70;;;9.93;;
6255;SDS011;3161;48.794;9.784;2023-04-08T05:25:34;12.33;;;10.33;;
6255;SDS011;3161;48.794;9.784;2023-04-08T05:28:03;13.70;;;10.17;;
6255;SDS011;3161;48.794;9.784;2023-04-08T05:30:30;12.37;;;10.10;;
6255;SDS011;3161;48.794;9.784;2023-04-08T05:32:58;12.60;;;10.00;;
6255;SDS011;3161;48.794;9.784;2023-04-08T05:35:25;11.70;;;9.63;;
6255;SDS011;3161;48.794;9.784;2023-04-08T05:37:53;11.83;;;9.60;;
6255;SDS011;3161;48.794;9.784;2023-04-08T05:40:21;12.17;;;10.00;;
6255;SDS011;3161;48.794;9.784;2023-04-08T05:42:48;17.83;;;10.07;;
6255;SDS011;3161;48.794;9.784;2023-04-08T05:45:16;14.60;;;10.43;;
6255;SDS011;3161;48.794;9.784;2023-04-08T05:47:44;15.00;;;11.53;;
6255;SDS011;3161;48.794;9.784;2023-04-08T05:50:11;22.60;;;17.03;;
6255;SDS011;3161;48.794;9.784;2023-04-08T05:52:42;22.10;;;14.80;;
6255;SDS011;3161;48.794;9.784;2023-04-08T05:55:10;16.97;;;12.40;;
6255;SDS011;3161;48.794;9.784;2023-04-08T05:57:39;16.50;;;12.07;;
6255;SDS011;3161;48.794;9.784;2023-04-08T06:00:08;13.93;;;11.87;;
6255;SDS011;3161;48.794;9.784;2023-04-08T06:02:36;14.60;;;10.93;;
6255;SDS011;3161;48.794;9.784;2023-04-08T06:05:04;13.77;;;11.77;;
6255;SDS011;3161;48.794;9.784;2023-04-08T06:07:32;14.97;;;11.73;;
6255;SDS011;3161;48.794;9.784;2023-04-08T06:10:00;11.93;;;9.80;;
6255;SDS011;3161;48.794;9.784;2023-04-08T06:12:29;14.50;;;11.53;;
6255;SDS011;3161;48.794;9.784;2023-04-08T06:14:57;13.37;;;11.20;;
6255;SDS011;3161;48.794;9.784;2023-04-08T06:20:19;12.67;;;10.07;;
6255;SDS011;3161;48.794;9.784;2023-04-08T06:22:46;14.43;;;11.13;;
6255;SDS011;3161;48.794;9.784;2023-04-08T06:25:14;13.77;;;10.10;;
6255;SDS011;3161;48.794;9.784;2023-04-08T06:27:42;13.53;;;10.80;;
6255;SDS011;3161;48.794;9.784;2023-04-08T06:30:10;12.30;;;10.57;;
6255;SDS011;3161;48.794;9.784;2023-04-08T06:32:38;12.30;;;10.40;;
6255;SDS011;3161;48.794;9.784;2023-04-08T06:35:05;14.50;;;10.90;;
6255;SDS011;3161;48.794;9.784;2023-04-08T06:37:33;13.60;;;10.93;;
6255;SDS011;3161;48.794;9.784;2023-04-08T06:40:06;16.40;;;11.27;;
6255;SDS011;3161;48.794;9.784;2023-04-08T06:42:35;16.50;;;11.70;;
6255;SDS011;3161;48.794;9.784;2023-04-08T06:45:04;12.73;;;10.33;;
6255;SDS011;3161;48.794;9.784;2023-04-08T06:47:32;15.47;;;10.77;;
6255;SDS011;3161;48.794;9.784;2023-04-08T06:50:00;14.00;;;10.67;;
6255;SDS011;3161;48.794;9.784;2023-04-08T06:52:27;14.73;;;11.17;;
6255;SDS011;3161;48.794;9.784;2023-04-08T06:54:55;13.93;;;10.30;;
6255;SDS011;3161;48.794;9.784;2023-04-08T06:57:22;11.57;;;10.13;;
6255;SDS011;3161;48.794;9.784;2023-04-08T06:59:50;17.50;;;10.50;;
6255;SDS011;3161;48.794;9.784;2023-04-08T07:02:18;15.27;;;10.17;;
6255;SDS011;3161;48.794;9.784;2023-04-08T07:04:47;26.40;;;17.00;;
6255;SDS011;3161;48.794;9.784;2023-04-08T07:07:15;14.40;;;10.17;;
6255;SDS011;3161;48.794;9.784;2023-04-08T07:09:43;11.23;;;10.10;;
6255;SDS011;3161;48.794;9.784;2023-04-08T07:12:11;12.47;;;10.33;;
6255;SDS011;3161;48.794;9.784;2023-04-08T07:14:39;14.70;;;11.83;;
6255;SDS011;3161;48.794;9.784;2023-04-08T07:17:06;12.50;;;10.00;;
6255;SDS011;3161;48.794;9.784;2023-04-08T07:19:34;14.13;;;10.30;;
6255;SDS011;3161;48.794;9.784;2023-04-08T07:22:02;13.73;;;11.70;;
6255;SDS011;3161;48.794;9.784;2023-04-08T07:24:30;13.50;;;10.97;;
6255;SDS011;3161;48.794;9.784;2023-04-08T07:26:59;15.83;;;11.40;;
6255;SDS011;3161;48.794;9.784;2023-04-08T07:29:26;11.33;;;9.67;;
6255;SDS011;3161;48.794;9.784;2023-04-08T07:31:54;11.60;;;9.87;;
6255;SDS011;3161;48.794;9.784;2023-04-08T07:34:21;15.13;;;10.60;;
6255;SDS011;3161;48.794;9.784;2023-04-08T07:36:49;13.97;;;10.33;;
6255;SDS011;3161;48.794;9.784;2023-04-08T07:39:16;11.83;;;10.03;;
6255;SDS011;3161;48.794;9.784;2023-04-08T07:41:44;12.30;;;9.43;;
6255;SDS011;3161;48.794;9.784;2023-04-08T07:44:11;11.57;;;9.63;;
6255;SDS011;3161;48.794;9.784;2023-04-08T07:46:41;15.40;;;9.53;;
6255;SDS011;3161;48.794;9.784;2023-04-08T07:49:10;11.23;;;9.60;;
6255;SDS011;3161;48.794;9.784;2023-04-08T07:51:37;10.17;;;8.63;;
6255;SDS011;3161;48.794;9.784;2023-04-08T07:54:05;13.87;;;9.37;;
6255;SDS011;3161;48.794;9.784;2023-04-08T07:56:33;10.90;;;9.20;;
6255;SDS011;3161;48.794;9.784;2023-04-08T07:59:00;8.67;;;7.77;;
6255;SDS011;3161;48.794;9.784;2023-04-08T08:01:28;11.47;;;9.17;;
6255;SDS011;3161;48.794;9.784;2023-04-08T08:03:57;11.17;;;8.80;;
6255;SDS011;3161;48.794;9.784;2023-04-08T08:06:25;13.90;;;9.00;;
6255;SDS011;3161;48.794;9.784;2023-04-08T08:08:53;9.83;;;8.10;;
6255;SDS011;3161;48.794;9.784;2023-04-08T08:11:20;9.43;;;7.50;;
6255;SDS011;3161;48.794;9.784;2023-04-08T08:13:48;8.20;;;6.83;;
6255;SDS011;3161;48.794;9.784;2023-04-08T08:16:15;9.10;;;7.93;;
6255;SDS011;3161;48.794;9.784;2023-04-08T08:18:43;8.93;;;8.03;;
6255;SDS011;3161;48.794;9.784;2023-04-08T08:21:11;10.33;;;8.57;;
6255;SDS011;3161;48.794;9.784;2023-04-08T08:23:38;9.43;;;8.10;;
6255;SDS011;3161;48.794;9.784;2023-04-08T08:26:07;10.97;;;8.30;;
6255;SDS011;3161;48.794;9.784;2023-04-08T08:28:36;9.20;;;7.87;;
6255;SDS011;3161;48.794;9.784;2023-04-08T08:31:04;10.37;;;8.07;;
6255;SDS011;3161;48.794;9.784;2023-04-08T08:33:32;9.13;;;8.23;;
6255;SDS011;3161;48.794;9.784;2023-04-08T08:36:00;8.23;;;7.43;;
6255;SDS011;3161;48.794;9.784;2023-04-08T08:38:29;10.97;;;7.83;;
6255;SDS011;3161;48.794;9.784;2023-04-08T08:40:57;9.37;;;7.70;;
6255;SDS011;3161;48.794;9.784;2023-04-08T08:43:25;8.50;;;7.33;;
6255;SDS011;3161;48.794;9.784;2023-04-08T08:45:54;9.13;;;7.00;;
6255;SDS011;3161;48.794;9.784;2023-04-08T08:48:22;9.80;;;8.20;;
6255;SDS011;3161;48.794;9.784;2023-04-08T08:50:50;9.07;;;7.77;;
6255;SDS011;3161;48.794;9.784;2023-04-08T08:53:17;10.47;;;8.40;;
6255;SDS011;3161;48.794;9.784;2023-04-08T08:55:45;8.60;;;7.37;;
6255;SDS011;3161;48.794;9.784;2023-04-08T08:58:13;11.83;;;7.83;;
6255;SDS011;3161;48.794;9.784;2023-04-08T09:00:41;8.27;;;7.40;;
6255;SDS011;3161;48.794;9.784;2023-04-08T09:05:49;8.00;;;7.20;;
6255;SDS011;3161;48.794;9.784;2023-04-08T09:11:10;12.10;;;7.20;;
6255;SDS011;3161;48.794;9.784;2023-04-08T09:13:42;8.27;;;7.17;;
6255;SDS011;3161;48.794;9.784;2023-04-08T09:16:12;8.37;;;7.23;;
6255;SDS011;3161;48.794;9.784;2023-04-08T09:18:42;8.77;;;6.90;;
6255;SDS011;3161;48.794;9.784;2023-04-08T09:21:12;9.13;;;7.90;;
6255;SDS011;3161;48.794;9.784;2023-04-08T09:26:12;9.83;;;7.53;;
6255;SDS011;3161;48.794;9.784;2023-04-08T09:28:56;7.73;;;6.87;;
6255;SDS011;3161;48.794;9.784;2023-04-08T09:31:35;9.43;;;7.17;;
6255;SDS011;3161;48.794;9.784;2023-04-08T09:34:08;11.13;;;7.57;;
6255;SDS011;3161;48.794;9.784;2023-04-08T09:36:33;9.83;;;7.60;;
6255;SDS011;3161;48.794;9.784;2023-04-08T09:39:00;10.90;;;6.53;;
6255;SDS011;3161;48.794;9.784;2023-04-08T09:41:28;7.17;;;6.20;;
6255;SDS011;3161;48.794;9.784;2023-04-08T09:43:59;7.90;;;6.33;;
6255;SDS011;3161;48.794;9.784;2023-04-08T09:49:19;13.80;;;6.50;;
6255;SDS011;3161;48.794;9.784;2023-04-08T09:52:06;8.07;;;6.00;;
6255;SDS011;3161;48.794;9.784;2023-04-08T09:57:16;6.57;;;5.87;;
6255;SDS011;3161;48.794;9.784;2023-04-08T09:59:51;8.17;;;6.40;;
6255;SDS011;3161;48.794;9.784;2023-04-08T10:02:22;8.13;;;6.47;;
6255;SDS011;3161;48.794;9.784;2023-04-08T10:04:51;6.87;;;5.97;;
6255;SDS011;3161;48.794;9.784;2023-04-08T10:07:21;9.57;;;6.47;;
6255;SDS011;3161;48.794;9.784;2023-04-08T10:09:49;8.07;;;6.17;;
6255;SDS011;3161;48.794;9.784;2023-04-08T10:12:18;8.37;;;7.10;;
6255;SDS011;3161;48.794;9.784;2023-04-08T10:17:53;7.87;;;5.70;;
6255;SDS011;3161;48.794;9.784;2023-04-08T10:20:41;12.33;;;5.90;;
6255;SDS011;3161;48.794;9.784;2023-04-08T10:23:05;9.40;;;6.70;;
6255;SDS011;3161;48.794;9.784;2023-04-08T10:30:44;8.33;;;5.87;;
6255;SDS011;3161;48.794;9.784;2023-04-08T10:33:15;8.47;;;5.60;;
6255;SDS011;3161;48.794;9.784;2023-04-08T10:35:54;7.17;;;5.73;;
6255;SDS011;3161;48.794;9.784;2023-04-08T10:38:27;6.93;;;5.70;;
6255;SDS011;3161;48.794;9.784;2023-04-08T10:40:55;6.83;;;5.03;;
6255;SDS011;3161;48.794;9.784;2023-04-08T10:43:23;9.30;;;5.60;;
6255;SDS011;3161;48.794;9.784;2023-04-08T10:45:52;7.03;;;5.20;;
6255;SDS011;3161;48.794;9.784;2023-04-08T10:48:20;6.70;;;5.43;;
6255;SDS011;3161;48.794;9.784;2023-04-08T10:50:56;9.73;;;5.10;;
6255;SDS011;3161;48.794;9.784;2023-04-08T10:53:28;5.43;;;4.93;;
6255;SDS011;3161;48.794;9.784;2023-04-08T10:56:07;7.07;;;5.13;;
6255;SDS011;3161;48.794;9.784;2023-04-08T10:58:50;6.00;;;4.83;;
6255;SDS011;3161;48.794;9.784;2023-04-08T11:01:21;5.70;;;4.97;;
6255;SDS011;3161;48.794;9.784;2023-04-08T11:03:49;6.73;;;4.90;;
6255;SDS011;3161;48.794;9.784;2023-04-08T11:06:16;5.80;;;4.70;;
6255;SDS011;3161;48.794;9.784;2023-04-08T11:08:44;7.30;;;5.10;;
6255;SDS011;3161;48.794;9.784;2023-04-08T11:11:12;5.97;;;5.30;;
6255;SDS011;3161;48.794;9.784;2023-04-08T11:13:41;5.87;;;4.67;;
6255;SDS011;3161;48.794;9.784;2023-04-08T11:16:10;8.90;;;5.13;;
6255;SDS011;3161;48.794;9.784;2023-04-08T11:18:38;9.67;;;4.83;;
6255;SDS011;3161;48.794;9.784;2023-04-08T11:21:09;4.53;;;4.10;;
6255;SDS011;3161;48.794;9.784;2023-04-08T11:23:37;6.40;;;5.17;;
6255;SDS011;3161;48.794;9.784;2023-04-08T11:26:05;7.90;;;5.13;;
6255;SDS011;3161;48.794;9.784;2023-04-08T11:28:33;8.13;;;4.87;;
6255;SDS011;3161;48.794;9.784;2023-04-08T11:31:01;6.87;;;4.90;;
6255;SDS011;3161;48.794;9.784;2023-04-08T11:33:32;6.07;;;4.70;;
6255;SDS011;3161;48.794;9.784;2023-04-08T11:36:01;6.67;;;5.07;;
6255;SDS011;3161;48.794;9.784;2023-04-08T11:38:33;23.17;;;11.30;;
6255;SDS011;3161;48.794;9.784;2023-04-08T11:41:03;21.67;;;11.70;;
6255;SDS011;3161;48.794;9.784;2023-04-08T11:43:31;9.63;;;6.57;;
6255;SDS011;3161;48.794;9.784;2023-04-08T11:46:07;7.87;;;6.73;;
6255;SDS011;3161;48.794;9.784;2023-04-08T11:48:39;7.10;;;4.73;;
6255;SDS011;3161;48.794;9.784;2023-04-08T11:51:07;9.27;;;5.90;;
6255;SDS011;3161;48.794;9.784;2023-04-08T11:53:35;12.13;;;6.00;;
6255;SDS011;3161;48.794;9.784;2023-04-08T11:56:20;10.33;;;6.03;;
6255;SDS011;3161;48.794;9.784;2023-04-08T11:58:46;5.83;;;4.60;;
6255;SDS011;3161;48.794;9.784;2023-04-08T12:01:14;7.10;;;5.40;;
6255;SDS011;3161;48.794;9.784;2023-04-08T12:03:54;5.87;;;4.97;;
6255;SDS011;3161;48.794;9.784;2023-04-08T12:06:29;6.00;;;5.03;;
6255;SDS011;3161;48.794;9.784;2023-04-08T12:08:57;7.07;;;5.03;;
6255;SDS011;3161;48.794;9.784;2023-04-08T12:11:24;6.30;;;4.73;;
6255;SDS011;3161;48.794;9.784;2023-04-08T12:13:52;6.93;;;4.43;;
6255;SDS011;3161;48.794;9.784;2023-04-08T12:16:20;8.33;;;5.20;;
6255;SDS011;3161;48.794;9.784;2023-04-08T12:18:47;5.73;;;4.77;;
6255;SDS011;3161;48.794;9.784;2023-04-08T12:21:15;5.13;;;4.20;;
6255;SDS011;3161;48.794;9.784;2023-04-08T12:23:42;5.77;;;4.63;;
6255;SDS011;3161;48.794;9.784;2023-04-08T12:26:10;6.23;;;4.67;;
6255;SDS011;3161;48.794;9.784;2023-04-08T12:28:38;5.00;;;4.47;;
6255;SDS011;3161;48.794;9.784;2023-04-08T12:31:05;6.40;;;4.77;;
6255;SDS011;3161;48.794;9.784;2023-04-08T12:33:33;7.33;;;4.80;;
6255;SDS011;3161;48.794;9.784;2023-04-08T12:36:00;5.30;;;4.33;;
6255;SDS011;3161;48.794;9.784;2023-04-08T12:38:28;4.70;;;4.17;;
6255;SDS011;3161;48.794;9.784;2023-04-08T12:40:56;4.17;;;3.77;;
6255;SDS011;3161;48.794;9.784;2023-04-08T12:43:23;6.40;;;4.37;;
6255;SDS011;3161;48.794;9.784;2023-04-08T12:45:51;7.17;;;4.10;;
6255;SDS011;3161;48.794;9.784;2023-04-08T12:48:18;6.10;;;4.07;;
6255;SDS011;3161;48.794;9.784;2023-04-08T12:50:46;5.27;;;4.10;;
6255;SDS011;3161;48.794;9.784;2023-04-08T12:53:13;4.70;;;4.30;;
6255;SDS011;3161;48.794;9.784;2023-04-08T12:55:41;4.43;;;3.97;;
6255;SDS011;3161;48.794;9.784;2023-04-08T12:58:08;5.17;;;4.33;;
6255;SDS011;3161;48.794;9.784;2023-04-08T13:00:36;6.80;;;4.13;;
6255;SDS011;3161;48.794;9.784;2023-04-08T13:03:03;5.17;;;4.40;;
6255;SDS011;3161;48.794;9.784;2023-04-08T13:05:31;4.77;;;4.30;;
6255;SDS011;3161;48.794;9.784;2023-04-08T13:07:59;5.77;;;4.40;;
6255;SDS011;3161;48.794;9.784;2023-04-08T13:10:26;4.37;;;3.97;;
6255;SDS011;3161;48.794;9.784;2023-04-08T13:12:54;6.07;;;4.13;;
6255;SDS011;3161;48.794;9.784;2023-04-08T13:15:22;9.77;;;4.70;;
6255;SDS011;3161;48.794;9.784;2023-04-08T13:17:50;4.90;;;3.97;;
6255;SDS011;3161;48.794;9.784;2023-04-08T13:20:17;5.70;;;4.30;;
6255;SDS011;3161;48.794;9.784;2023-04-08T13:22:45;5.67;;;4.77;;
6255;SDS011;3161;48.794;9.784;2023-04-08T13:25:12;5.80;;;4.60;;
6255;SDS011;3161;48.794;9.784;2023-04-08T13:27:40;5.00;;;3.73;;
6255;SDS011;3161;48.794;9.784;2023-04-08T13:30:08;7.37;;;4.63;;
6255;SDS011;3161;48.794;9.784;2023-04-08T13:32:36;7.07;;;4.57;;
6255;SDS011;3161;48.794;9.784;2023-04-08T13:35:04;5.17;;;4.63;;
6255;SDS011;3161;48.794;9.784;2023-04-08T13:37:32;4.73;;;4.10;;
6255;SDS011;3161;48.794;9.784;2023-04-08T13:39:59;6.30;;;4.60;;
6255;SDS011;3161;48.794;9.784;2023-04-08T13:42:29;5.30;;;4.17;;
6255;SDS011;3161;48.794;9.784;2023-04-08T13:44:57;7.83;;;5.07;;
6255;SDS011;3161;48.794;9.784;2023-04-08T13:47:25;16.83;;;7.33;;
6255;SDS011;3161;48.794;9.784;2023-04-08T13:49:53;7.90;;;5.27;;
6255;SDS011;3161;48.794;9.784;2023-04-08T13:52:20;37.60;;;12.13;;
6255;SDS011;3161;48.794;9.784;2023-04-08T13:54:48;17.13;;;7.23;;
6255;SDS011;3161;48.794;9.784;2023-04-08T13:57:16;28.27;;;9.80;;
6255;SDS011;3161;48.794;9.784;2023-04-08T13:59:43;52.67;;;15.10;;
6255;SDS011;3161;48.794;9.784;2023-04-08T14:02:11;20.63;;;7.00;;
6255;SDS011;3161;48.794;9.784;2023-04-08T14:04:38;17.30;;;6.50;;
6255;SDS011;3161;48.794;9.784;2023-04-08T14:07:06;8.70;;;4.40;;
6255;SDS011;3161;48.794;9.784;2023-04-08T14:09:34;57.10;;;12.50;;
6255;SDS011;3161;48.794;9.784;2023-04-08T14:12:01;23.87;;;6.60;;
6255;SDS011;3161;48.794;9.784;2023-04-08T14:14:29;8.67;;;5.30;;
6255;SDS011;3161;48.794;9.784;2023-04-08T14:16:56;23.17;;;12.47;;
6255;SDS011;3161;48.794;9.784;2023-04-08T14:19:24;6.60;;;5.27;;
6255;SDS011;3161;48.794;9.784;2023-04-08T14:21:52;4.43;;;3.80;;
6255;SDS011;3161;48.794;9.784;2023-04-08T14:24:19;5.47;;;4.00;;
6255;SDS011;3161;48.794;9.784;2023-04-08T14:26:47;5.10;;;3.90;;
6255;SDS011;3161;48.794;9.784;2023-04-08T14:29:14;3.97;;;3.63;;
6255;SDS011;3161;48.794;9.784;2023-04-08T14:31:42;8.00;;;4.50;;
6255;SDS011;3161;48.794;9.784;2023-04-08T14:34:09;5.20;;;4.00;;
6255;SDS011;3161;48.794;9.784;2023-04-08T14:36:37;4.80;;;4.20;;
6255;SDS011;3161;48.794;9.784;2023-04-08T14:39:04;6.50;;;4.33;;
6255;SDS011;3161;48.794;9.784;2023-04-08T14:41:32;6.23;;;4.10;;
6255;SDS011;3161;48.794;9.784;2023-04-08T14:43:59;7.30;;;4.50;;
6255;SDS011;3161;48.794;9.784;2023-04-08T14:49:16;6.93;;;4.53;;
6255;SDS011;3161;48.794;9.784;2023-04-08T14:51:43;4.67;;;3.60;;
6255;SDS011;3161;48.794;9.784;2023-04-08T14:54:11;4.00;;;3.50;;
6255;SDS011;3161;48.794;9.784;2023-04-08T14:56:39;6.00;;;3.80;;
6255;SDS011;3161;48.794;9.784;2023-04-08T14:59:06;3.97;;;3.23;;
6255;SDS011;3161;48.794;9.784;2023-04-08T15:01:34;4.93;;;3.50;;
6255;SDS011;3161;48.794;9.784;2023-04-08T15:04:02;7.80;;;3.40;;
6255;SDS011;3161;48.794;9.784;2023-04-08T15:06:30;3.73;;;3.43;;
6255;SDS011;3161;48.794;9.784;2023-04-08T15:08:57;3.37;;;3.07;;
6255;SDS011;3161;48.794;9.784;2023-04-08T15:11:26;14.17;;;7.20;;
6255;SDS011;3161;48.794;9.784;2023-04-08T15:13:53;14.50;;;7.27;;
6255;SDS011;3161;48.794;9.784;2023-04-08T15:16:21;13.03;;;6.40;;
6255;SDS011;3161;48.794;9.784;2023-04-08T15:18:49;27.20;;;11.23;;
6255;SDS011;3161;48.794;9.784;2023-04-08T15:21:17;10.23;;;4.87;;
6255;SDS011;3161;48.794;9.784;2023-04-08T15:23:44;15.03;;;7.47;;
6255;SDS011;3161;48.794;9.784;2023-04-08T15:26:12;13.10;;;6.27;;
6255;SDS011;3161;48.794;9.784;2023-04-08T15:28:40;9.57;;;5.17;;
6255;SDS011;3161;48.794;9.784;2023-04-08T15:31:09;11.97;;;6.37;;
6255;SDS011;3161;48.794;9.784;2023-04-08T15:33:37;6.73;;;5.30;;
6255;SDS011;3161;48.794;9.784;2023-04-08T15:36:06;10.47;;;7.00;;
6255;SDS011;3161;48.794;9.784;2023-04-08T15:38:34;6.97;;;4.97;;
6255;SDS011;3161;48.794;9.784;2023-04-08T15:41:02;6.77;;;5.23;;
6255;SDS011;3161;48.794;9.784;2023-04-08T15:43:29;7.03;;;5.13;;